Terminal Aerodrome Forecast
Issued by NWS

Home | Current Version | Previous Version | Text Only | Print | Product List | Glossary On
Versions: 1 2 3 4 5 6 7 8 9 10 11 12 13 14
000
FTUS43 KMQT 211100
TAFSAW
TAF
KSAW 211137Z 2112/2212 23005KT P6SM FEW110
     FM211700 20014G22KT P6SM BKN120
     FM220800 21013G21KT P6SM OVC020
      AMD LTD TO CLD VIS AND WIND 2203/2211=

USA.gov is the U.S. government's official web portal to all federal, state and local government web resources and services.